Buford, WY (82052)

4:46 PM MST on February 13, 2016 (GMT -0700)
Harriman Heights | | Change Station
CLOSE
Current Station
Personal Weather Station
Location: Wyoming, WY
Elevation: 7467 ft
Nearby Weather Stations
Active Advisory: High Wind Warning

Elev 7467 ft 41.00 °N, 105.25 °W | Updated 10 minutes ago

Partly Cloudy
Partly Cloudy
45.9 °F
Feels Like 39 °F
N
15.5
Wind Variable Wind from WSW

Today
High -- | Low -- °F
--% Chance of Precip.
Yesterday
High -- | Low -- °F
Precip. -- in
Pressure 29.94 in
Visibility 10.0 miles
Clouds Clear
Windchill 39 °F
Dew Point 16 °F
Humidity 29%
Rainfall 0.00 in
Snow Depth Not available.
6:58 AM 5:32 PM
Waxing Crescent, 35% visible
METAR KFEW 132258Z AUTO 28037G46KT 10SM CLR 11/M08 A2994 RMK AO2 PK WND 28044/44 SLPNO T01091083 $
Pressure 29.94 in
Visibility 10.0 miles
Clouds Clear
Windchill 39 °F
Dew Point 16 °F
Humidity 29%
Rainfall 0.00 in
Snow Depth Not available.
6:58 AM 5:32 PM
Waxing Crescent, 35% visible
METAR KFEW 132258Z AUTO 28037G46KT 10SM CLR 11/M08 A2994 RMK AO2 PK WND 28044/44 SLPNO T01091083 $

10-Day Weather Forecast

Almanac

Astronomy

Feb. 13, 2016 Rise Set
Actual Time
Civil Twilight
Nautical Twilight
Astronomical Twilight
Moon
Length of Visible Light
Length of Day
Tomorrow will be .
, % of the Moon is Illuminated

Today's Extremes

State Highs State Lows

Community

WunderPhotos

Upload Photos

1,892,705 photos uploaded!

WunderBlog® & News

Nearby

Air Quality

  Air Quality AQ Index Pollutant
Not available.

Snow Depth

Station Depth Elevation

Earthquake Activity

City Distance Mag. Time & Date
Minimum magnitude displayed is 2.5.

Coastal Water Temperatures

Place Temperature

Stations

Nearby Weather Stations

Station Location Temp. Windchill Dew Point Humidity Wind Precip. Elev Updated Type
                   

Watches & Warnings

High Wind Warning
Issued: 2:53 PM MST Feb. 13, 2016 – National Weather Service

... High Wind Warning remains in effect until 9 am MST Sunday...

* timing... periods of strong gusty winds will continue through
Sunday morning.

* Winds... sustained west winds 30 to 45 mph with gusts to 65 mph.

* Impacts... mainly to transportation. Travel will be hazardous
to light weight and high profile vehicles... especially on
north to south oriented roadways.

Precautionary/preparedness actions...

A High Wind Warning means a hazardous high wind event is expected
or occurring. Sustained wind speeds of at least 40 mph or gusts
of 58 mph or more can lead to property damage. For detailed Road
and travel conditions in Wyoming and Nebraska... dial 5 1 1.